sensor_id;sensor_type;location;lat;lon;timestamp;pressure;altitude;pressure_sealevel;temperature;humidity
13420;BME280;6781;58.440;15.470;2022-07-23T00:01:35;100478.03;;;18.46;100.00
13420;BME280;6781;58.440;15.470;2022-07-23T00:04:04;100477.22;;;18.45;100.00
13420;BME280;6781;58.440;15.470;2022-07-23T00:06:31;100388.97;;;17.91;100.00
13420;BME280;6781;58.440;15.470;2022-07-23T00:08:57;100425.72;;;18.13;100.00
13420;BME280;6781;58.440;15.470;2022-07-23T00:11:24;100454.81;;;18.35;100.00
13420;BME280;6781;58.440;15.470;2022-07-23T00:13:51;100355.81;;;17.67;100.00
13420;BME280;6781;58.440;15.470;2022-07-23T00:16:20;100480.94;;;18.51;100.00
13420;BME280;6781;58.440;15.470;2022-07-23T00:18:49;100435.81;;;18.25;100.00
13420;BME280;6781;58.440;15.470;2022-07-23T00:21:18;100468.81;;;18.50;100.00
13420;BME280;6781;58.440;15.470;2022-07-23T00:23:44;100446.63;;;18.30;100.00
13420;BME280;6781;58.440;15.470;2022-07-23T00:26:11;100479.50;;;18.48;100.00
13420;BME280;6781;58.440;15.470;2022-07-23T00:28:38;100480.94;;;18.51;100.00
13420;BME280;6781;58.440;15.470;2022-07-23T00:31:05;100456.09;;;18.39;100.00
13420;BME280;6781;58.440;15.470;2022-07-23T00:33:32;100475.69;;;18.51;100.00
13420;BME280;6781;58.440;15.470;2022-07-23T00:35:58;100477.69;;;18.49;100.00
13420;BME280;6781;58.440;15.470;2022-07-23T00:38:27;100452.75;;;18.22;100.00
13420;BME280;6781;58.440;15.470;2022-07-23T00:40:55;100446.22;;;17.87;100.00
13420;BME280;6781;58.440;15.470;2022-07-23T00:43:22;100425.97;;;17.65;100.00
13420;BME280;6781;58.440;15.470;2022-07-23T00:45:49;100436.75;;;17.78;100.00
13420;BME280;6781;58.440;15.470;2022-07-23T00:48:16;100440.28;;;17.93;100.00
13420;BME280;6781;58.440;15.470;2022-07-23T00:50:43;100475.69;;;18.28;100.00
13420;BME280;6781;58.440;15.470;2022-07-23T00:53:10;100493.53;;;18.33;100.00
13420;BME280;6781;58.440;15.470;2022-07-23T00:55:39;100283.19;;;17.05;100.00
13420;BME280;6781;58.440;15.470;2022-07-23T00:58:06;100375.94;;;17.74;100.00
13420;BME280;6781;58.440;15.470;2022-07-23T01:00:33;100483.47;;;18.13;100.00
13420;BME280;6781;58.440;15.470;2022-07-23T01:03:00;100463.97;;;17.77;100.00
13420;BME280;6781;58.440;15.470;2022-07-23T01:05:27;100481.72;;;17.67;100.00
13420;BME280;6781;58.440;15.470;2022-07-23T01:07:54;100441.22;;;17.22;100.00
13420;BME280;6781;58.440;15.470;2022-07-23T01:10:20;100455.53;;;16.95;100.00
13420;BME280;6781;58.440;15.470;2022-07-23T01:13:07;100410.97;;;16.22;100.00
13420;BME280;6781;58.440;15.470;2022-07-23T01:15:36;100452.38;;;16.51;100.00
13420;BME280;6781;58.440;15.470;2022-07-23T01:18:05;100499.03;;;16.55;100.00
13420;BME280;6781;58.440;15.470;2022-07-23T01:20:33;100503.44;;;16.55;100.00
13420;BME280;6781;58.440;15.470;2022-07-23T01:23:01;100398.84;;;15.46;100.00
13420;BME280;6781;58.440;15.470;2022-07-23T01:25:28;100372.81;;;15.37;100.00
13420;BME280;6781;58.440;15.470;2022-07-23T01:27:55;100442.44;;;15.80;100.00
13420;BME280;6781;58.440;15.470;2022-07-23T01:30:21;100431.78;;;15.73;100.00
13420;BME280;6781;58.440;15.470;2022-07-23T01:32:48;100523.59;;;16.04;100.00
13420;BME280;6781;58.440;15.470;2022-07-23T01:35:15;100428.69;;;15.10;100.00
13420;BME280;6781;58.440;15.470;2022-07-23T01:37:42;100524.13;;;15.74;100.00
13420;BME280;6781;58.440;15.470;2022-07-23T01:40:10;100392.72;;;14.52;100.00
13420;BME280;6781;58.440;15.470;2022-07-23T01:42:37;100556.69;;;15.27;100.00
13420;BME280;6781;58.440;15.470;2022-07-23T01:45:04;100571.28;;;15.38;100.00
13420;BME280;6781;58.440;15.470;2022-07-23T01:47:31;100526.63;;;15.06;100.00
13420;BME280;6781;58.440;15.470;2022-07-23T01:49:58;100402.47;;;14.32;100.00
13420;BME280;6781;58.440;15.470;2022-07-23T01:52:25;100414.41;;;14.17;100.00
13420;BME280;6781;58.440;15.470;2022-07-23T01:54:52;100621.09;;;15.37;100.00
13420;BME280;6781;58.440;15.470;2022-07-23T01:57:20;100370.66;;;14.11;100.00
13420;BME280;6781;58.440;15.470;2022-07-23T01:59:47;100580.72;;;15.31;100.00
13420;BME280;6781;58.440;15.470;2022-07-23T02:02:13;100596.38;;;15.75;100.00
13420;BME280;6781;58.440;15.470;2022-07-23T02:07:16;100407.38;;;14.17;100.00
13420;BME280;6781;58.440;15.470;2022-07-23T02:09:43;100553.13;;;14.93;100.00
13420;BME280;6781;58.440;15.470;2022-07-23T02:12:09;100525.59;;;14.63;100.00
13420;BME280;6781;58.440;15.470;2022-07-23T02:14:37;100613.34;;;14.91;100.00
13420;BME280;6781;58.440;15.470;2022-07-23T02:17:04;100549.38;;;14.42;100.00
13420;BME280;6781;58.440;15.470;2022-07-23T02:19:31;100625.88;;;14.70;100.00
13420;BME280;6781;58.440;15.470;2022-07-23T02:21:57;100632.72;;;14.71;100.00
13420;BME280;6781;58.440;15.470;2022-07-23T02:24:24;100598.88;;;14.24;100.00
13420;BME280;6781;58.440;15.470;2022-07-23T02:26:51;100607.66;;;14.23;100.00
13420;BME280;6781;58.440;15.470;2022-07-23T02:29:17;100661.59;;;14.42;100.00
13420;BME280;6781;58.440;15.470;2022-07-23T02:31:46;100638.13;;;14.32;100.00
13420;BME280;6781;58.440;15.470;2022-07-23T02:34:12;100699.13;;;14.69;100.00
13420;BME280;6781;58.440;15.470;2022-07-23T02:36:39;100693.53;;;14.54;100.00
13420;BME280;6781;58.440;15.470;2022-07-23T02:39:06;100503.88;;;13.35;100.00
13420;BME280;6781;58.440;15.470;2022-07-23T02:41:33;100700.81;;;14.60;100.00
13420;BME280;6781;58.440;15.470;2022-07-23T02:44:00;100677.09;;;14.34;100.00
13420;BME280;6781;58.440;15.470;2022-07-23T02:46:27;100732.69;;;14.54;100.00
13420;BME280;6781;58.440;15.470;2022-07-23T02:48:55;100719.91;;;14.60;100.00
13420;BME280;6781;58.440;15.470;2022-07-23T02:51:22;100681.00;;;14.20;100.00
13420;BME280;6781;58.440;15.470;2022-07-23T02:53:49;100670.75;;;14.09;100.00
13420;BME280;6781;58.440;15.470;2022-07-23T02:56:15;100681.78;;;14.30;100.00
13420;BME280;6781;58.440;15.470;2022-07-23T02:58:42;100695.19;;;14.55;100.00
13420;BME280;6781;58.440;15.470;2022-07-23T03:01:09;100731.84;;;14.90;100.00
13420;BME280;6781;58.440;15.470;2022-07-23T03:03:36;100693.75;;;14.70;100.00
13420;BME280;6781;58.440;15.470;2022-07-23T03:06:07;100643.28;;;14.52;100.00
13420;BME280;6781;58.440;15.470;2022-07-23T03:08:34;100705.94;;;15.24;100.00
13420;BME280;6781;58.440;15.470;2022-07-23T03:11:01;100647.03;;;14.67;100.00
13420;BME280;6781;58.440;15.470;2022-07-23T03:13:27;100659.41;;;14.65;100.00
13420;BME280;6781;58.440;15.470;2022-07-23T03:15:57;100625.34;;;14.29;100.00
13420;BME280;6781;58.440;15.470;2022-07-23T03:18:24;100661.16;;;14.47;100.00
13420;BME280;6781;58.440;15.470;2022-07-23T03:20:51;100693.66;;;14.62;100.00
13420;BME280;6781;58.440;15.470;2022-07-23T03:23:19;100513.31;;;13.36;100.00
13420;BME280;6781;58.440;15.470;2022-07-23T03:25:46;100589.66;;;13.93;100.00
13420;BME280;6781;58.440;15.470;2022-07-23T03:28:13;100559.44;;;13.73;100.00
13420;BME280;6781;58.440;15.470;2022-07-23T03:30:40;100673.44;;;14.64;100.00
13420;BME280;6781;58.440;15.470;2022-07-23T03:33:07;100692.38;;;14.93;100.00
13420;BME280;6781;58.440;15.470;2022-07-23T03:35:34;100628.50;;;14.43;100.00
13420;BME280;6781;58.440;15.470;2022-07-23T03:38:01;100601.22;;;14.55;100.00
13420;BME280;6781;58.440;15.470;2022-07-23T03:40:29;100692.47;;;15.02;100.00
13420;BME280;6781;58.440;15.470;2022-07-23T03:42:56;100510.09;;;14.16;100.00
13420;BME280;6781;58.440;15.470;2022-07-23T03:45:23;100665.91;;;15.24;100.00
13420;BME280;6781;58.440;15.470;2022-07-23T03:47:49;100621.19;;;14.91;100.00
13420;BME280;6781;58.440;15.470;2022-07-23T03:50:16;100603.72;;;14.92;100.00
13420;BME280;6781;58.440;15.470;2022-07-23T03:52:43;100540.50;;;14.25;100.00
13420;BME280;6781;58.440;15.470;2022-07-23T03:55:10;100654.69;;;14.78;100.00
13420;BME280;6781;58.440;15.470;2022-07-23T03:57:41;100613.00;;;14.59;100.00
13420;BME280;6781;58.440;15.470;2022-07-23T04:00:10;100598.69;;;14.36;100.00
13420;BME280;6781;58.440;15.470;2022-07-23T04:02:38;100669.28;;;14.71;100.00
13420;BME280;6781;58.440;15.470;2022-07-23T04:05:06;100679.63;;;14.90;100.00
13420;BME280;6781;58.440;15.470;2022-07-23T04:07:33;100557.13;;;13.97;100.00
13420;BME280;6781;58.440;15.470;2022-07-23T04:10:00;100579.16;;;14.12;100.00
13420;BME280;6781;58.440;15.470;2022-07-23T04:12:27;100668.22;;;15.27;100.00
13420;BME280;6781;58.440;15.470;2022-07-23T04:14:55;100620.38;;;15.09;100.00
13420;BME280;6781;58.440;15.470;2022-07-23T04:17:21;100639.75;;;14.88;100.00
13420;BME280;6781;58.440;15.470;2022-07-23T04:19:48;100633.50;;;14.81;100.00
13420;BME280;6781;58.440;15.470;2022-07-23T04:22:15;100610.63;;;14.65;100.00
13420;BME280;6781;58.440;15.470;2022-07-23T04:24:41;100553.84;;;14.22;100.00
13420;BME280;6781;58.440;15.470;2022-07-23T04:27:08;100645.66;;;14.90;100.00
13420;BME280;6781;58.440;15.470;2022-07-23T04:29:35;100559.34;;;14.19;100.00
13420;BME280;6781;58.440;15.470;2022-07-23T04:32:04;100667.91;;;14.94;100.00
13420;BME280;6781;58.440;15.470;2022-07-23T04:34:31;100652.25;;;14.94;100.00
13420;BME280;6781;58.440;15.470;2022-07-23T04:36:58;100664.47;;;14.94;100.00
13420;BME280;6781;58.440;15.470;2022-07-23T04:39:25;100655.47;;;15.06;100.00
13420;BME280;6781;58.440;15.470;2022-07-23T04:41:51;100638.75;;;15.17;100.00
13420;BME280;6781;58.440;15.470;2022-07-23T04:44:18;100631.19;;;15.32;100.00
13420;BME280;6781;58.440;15.470;2022-07-23T04:46:45;100611.13;;;14.96;100.00
13420;BME280;6781;58.440;15.470;2022-07-23T04:49:13;100629.69;;;14.93;100.00
13420;BME280;6781;58.440;15.470;2022-07-23T04:51:39;100637.41;;;15.13;100.00
13420;BME280;6781;58.440;15.470;2022-07-23T04:54:06;100632.16;;;15.13;100.00
13420;BME280;6781;58.440;15.470;2022-07-23T04:56:33;100633.81;;;15.14;100.00
13420;BME280;6781;58.440;15.470;2022-07-23T04:59:00;100639.75;;;14.88;100.00
13420;BME280;6781;58.440;15.470;2022-07-23T05:01:26;100646.34;;;14.92;100.00
13420;BME280;6781;58.440;15.470;2022-07-23T05:03:53;100532.13;;;14.04;100.00
13420;BME280;6781;58.440;15.470;2022-07-23T05:06:21;100646.06;;;14.68;100.00
13420;BME280;6781;58.440;15.470;2022-07-23T05:08:48;100669.47;;;14.87;100.00
13420;BME280;6781;58.440;15.470;2022-07-23T05:11:15;100511.81;;;13.80;100.00
13420;BME280;6781;58.440;15.470;2022-07-23T05:13:41;100529.16;;;13.89;100.00
13420;BME280;6781;58.440;15.470;2022-07-23T05:16:08;100420.81;;;13.59;100.00
13420;BME280;6781;58.440;15.470;2022-07-23T05:18:35;100567.38;;;14.08;100.00
13420;BME280;6781;58.440;15.470;2022-07-23T05:21:02;100669.28;;;14.71;100.00
13420;BME280;6781;58.440;15.470;2022-07-23T05:23:30;100667.94;;;14.67;100.00
13420;BME280;6781;58.440;15.470;2022-07-23T05:25:57;100615.31;;;14.34;100.00
13420;BME280;6781;58.440;15.470;2022-07-23T05:28:24;100523.06;;;13.81;100.00
13420;BME280;6781;58.440;15.470;2022-07-23T05:30:50;100669.88;;;14.65;100.00
13420;BME280;6781;58.440;15.470;2022-07-23T05:33:18;100616.19;;;14.25;100.00
13420;BME280;6781;58.440;15.470;2022-07-23T05:35:44;100694.03;;;14.67;100.00
13420;BME280;6781;58.440;15.470;2022-07-23T05:38:11;100675.72;;;14.40;100.00
13420;BME280;6781;58.440;15.470;2022-07-23T05:40:39;100690.84;;;14.73;100.00
13420;BME280;6781;58.440;15.470;2022-07-23T05:43:06;100660.19;;;14.48;100.00
13420;BME280;6781;58.440;15.470;2022-07-23T05:45:32;100689.06;;;14.74;100.00
13420;BME280;6781;58.440;15.470;2022-07-23T05:47:59;100681.06;;;14.48;100.00
13420;BME280;6781;58.440;15.470;2022-07-23T05:50:26;100686.22;;;14.67;100.00
13420;BME280;6781;58.440;15.470;2022-07-23T05:52:53;100609.03;;;14.27;100.00
13420;BME280;6781;58.440;15.470;2022-07-23T05:55:20;100559.44;;;14.00;100.00
13420;BME280;6781;58.440;15.470;2022-07-23T05:57:48;100531.56;;;13.83;100.00
13420;BME280;6781;58.440;15.470;2022-07-23T06:00:15;100689.78;;;14.93;100.00
13420;BME280;6781;58.440;15.470;2022-07-23T06:02:41;100648.97;;;14.65;100.00
13420;BME280;6781;58.440;15.470;2022-07-23T06:05:08;100627.31;;;14.55;100.00
13420;BME280;6781;58.440;15.470;2022-07-23T06:07:35;100691.22;;;14.78;100.00
13420;BME280;6781;58.440;15.470;2022-07-23T06:10:03;100632.84;;;14.52;100.00
13420;BME280;6781;58.440;15.470;2022-07-23T06:12:30;100668.00;;;15.03;100.00
13420;BME280;6781;58.440;15.470;2022-07-23T06:14:58;100630.72;;;14.83;100.00
13420;BME280;6781;58.440;15.470;2022-07-23T06:17:25;100678.06;;;14.97;100.00
13420;BME280;6781;58.440;15.470;2022-07-23T06:19:52;100585.63;;;14.45;100.00
13420;BME280;6781;58.440;15.470;2022-07-23T06:22:20;100594.16;;;14.38;100.00
13420;BME280;6781;58.440;15.470;2022-07-23T06:24:47;100614.63;;;14.87;100.00
13420;BME280;6781;58.440;15.470;2022-07-23T06:27:13;100609.63;;;14.76;100.00
13420;BME280;6781;58.440;15.470;2022-07-23T06:29:40;100674.84;;;15.04;100.00
13420;BME280;6781;58.440;15.470;2022-07-23T06:32:12;100538.31;;;14.03;100.00
13420;BME280;6781;58.440;15.470;2022-07-23T06:34:38;100490.19;;;13.88;100.00
13420;BME280;6781;58.440;15.470;2022-07-23T06:37:05;100669.56;;;14.95;100.00
13420;BME280;6781;58.440;15.470;2022-07-23T06:39:33;100688.25;;;15.18;100.00
13420;BME280;6781;58.440;15.470;2022-07-23T06:42:00;100681.75;;;15.40;100.00
13420;BME280;6781;58.440;15.470;2022-07-23T06:44:27;100679.81;;;15.42;100.00
13420;BME280;6781;58.440;15.470;2022-07-23T06:46:54;100668.00;;;15.38;100.00
13420;BME280;6781;58.440;15.470;2022-07-23T06:49:22;100579.16;;;14.67;100.00
13420;BME280;6781;58.440;15.470;2022-07-23T06:51:49;100556.50;;;14.40;100.00
13420;BME280;6781;58.440;15.470;2022-07-23T06:54:16;100650.97;;;14.98;100.00
13420;BME280;6781;58.440;15.470;2022-07-23T06:56:43;100673.97;;;15.13;100.00
13420;BME280;6781;58.440;15.470;2022-07-23T06:59:09;100630.19;;;14.79;100.00
13420;BME280;6781;58.440;15.470;2022-07-23T07:01:37;100598.19;;;14.59;100.00
13420;BME280;6781;58.440;15.470;2022-07-23T07:04:04;100688.09;;;15.20;100.00
13420;BME280;6781;58.440;15.470;2022-07-23T07:06:32;100698.16;;;15.15;100.00
13420;BME280;6781;58.440;15.470;2022-07-23T07:08:59;100700.69;;;15.07;100.00
13420;BME280;6781;58.440;15.470;2022-07-23T07:11:26;100684.19;;;15.06;100.00
13420;BME280;6781;58.440;15.470;2022-07-23T07:13:53;100635.72;;;14.76;100.00
13420;BME280;6781;58.440;15.470;2022-07-23T07:16:20;100675.91;;;15.46;100.00
13420;BME280;6781;58.440;15.470;2022-07-23T07:18:47;100658.44;;;15.29;100.00
13420;BME280;6781;58.440;15.470;2022-07-23T07:21:14;100658.72;;;15.61;100.00
13420;BME280;6781;58.440;15.470;2022-07-23T07:23:42;100484.97;;;14.60;100.00
13420;BME280;6781;58.440;15.470;2022-07-23T07:26:09;100647.97;;;15.90;100.00
13420;BME280;6781;58.440;15.470;2022-07-23T07:28:36;100606.44;;;15.61;100.00
13420;BME280;6781;58.440;15.470;2022-07-23T07:31:03;100618.94;;;15.50;100.00
13420;BME280;6781;58.440;15.470;2022-07-23T07:33:30;100647.53;;;15.51;100.00
13420;BME280;6781;58.440;15.470;2022-07-23T07:35:59;100644.06;;;15.69;100.00
13420;BME280;6781;58.440;15.470;2022-07-23T07:38:26;100641.59;;;15.93;100.00
13420;BME280;6781;58.440;15.470;2022-07-23T07:40:55;100627.97;;;15.81;100.00
13420;BME280;6781;58.440;15.470;2022-07-23T07:43:21;100627.19;;;15.89;100.00
13420;BME280;6781;58.440;15.470;2022-07-23T07:45:48;100537.25;;;15.30;100.00
13420;BME280;6781;58.440;15.470;2022-07-23T07:48:15;100551.56;;;15.70;100.00
13420;BME280;6781;58.440;15.470;2022-07-23T07:50:42;100634.47;;;16.03;100.00
13420;BME280;6781;58.440;15.470;2022-07-23T07:53:09;100550.34;;;15.30;100.00
13420;BME280;6781;58.440;15.470;2022-07-23T07:55:35;100596.59;;;15.81;100.00
13420;BME280;6781;58.440;15.470;2022-07-23T07:58:03;100587.66;;;15.66;100.00
13420;BME280;6781;58.440;15.470;2022-07-23T08:00:31;100612.53;;;15.96;100.00
13420;BME280;6781;58.440;15.470;2022-07-23T08:02:58;100630.75;;;15.80;100.00
13420;BME280;6781;58.440;15.470;2022-07-23T08:05:26;100613.59;;;15.85;100.00
13420;BME280;6781;58.440;15.470;2022-07-23T08:07:54;100630.06;;;16.04;100.00
13420;BME280;6781;58.440;15.470;2022-07-23T08:10:25;100646.84;;;15.93;100.00
13420;BME280;6781;58.440;15.470;2022-07-23T08:12:53;100646.44;;;15.80;100.00
13420;BME280;6781;58.440;15.470;2022-07-23T08:15:24;100662.63;;;15.83;100.00
13420;BME280;6781;58.440;15.470;2022-07-23T08:17:52;100650.75;;;15.89;100.00
13420;BME280;6781;58.440;15.470;2022-07-23T08:20:21;100650.75;;;15.89;100.00
13420;BME280;6781;58.440;15.470;2022-07-23T08:22:50;100648.75;;;15.83;100.00
13420;BME280;6781;58.440;15.470;2022-07-23T08:25:20;100640.53;;;16.04;100.00
13420;BME280;6781;58.440;15.470;2022-07-23T08:27:48;100647.63;;;15.85;100.00
13420;BME280;6781;58.440;15.470;2022-07-23T08:30:15;100666.34;;;15.99;100.00
13420;BME280;6781;58.440;15.470;2022-07-23T08:32:52;100641.09;;;16.15;100.00
13420;BME280;6781;58.440;15.470;2022-07-23T08:35:23;100638.44;;;15.81;100.00
13420;BME280;6781;58.440;15.470;2022-07-23T08:37:50;100645.19;;;15.92;100.00
13420;BME280;6781;58.440;15.470;2022-07-23T08:40:17;100631.81;;;15.95;100.00
13420;BME280;6781;58.440;15.470;2022-07-23T08:42:47;100644.59;;;15.98;100.00
13420;BME280;6781;58.440;15.470;2022-07-23T08:45:16;100657.50;;;16.00;100.00
13420;BME280;6781;58.440;15.470;2022-07-23T08:47:44;100662.84;;;15.90;100.00
13420;BME280;6781;58.440;15.470;2022-07-23T08:50:14;100656.78;;;16.15;100.00
13420;BME280;6781;58.440;15.470;2022-07-23T08:52:40;100652.22;;;15.91;100.00
13420;BME280;6781;58.440;15.470;2022-07-23T08:55:08;100654.66;;;15.59;100.00
13420;BME280;6781;58.440;15.470;2022-07-23T08:57:35;100626.84;;;15.84;100.00
13420;BME280;6781;58.440;15.470;2022-07-23T09:00:04;100649.50;;;16.01;100.00
13420;BME280;6781;58.440;15.470;2022-07-23T09:02:38;100662.03;;;16.15;100.00
13420;BME280;6781;58.440;15.470;2022-07-23T09:05:07;100597.81;;;15.43;100.00
13420;BME280;6781;58.440;15.470;2022-07-23T09:07:37;100648.19;;;15.97;100.00
13420;BME280;6781;58.440;15.470;2022-07-23T09:10:06;100660.28;;;15.98;100.00
13420;BME280;6781;58.440;15.470;2022-07-23T09:12:33;100660.34;;;16.06;100.00
13420;BME280;6781;58.440;15.470;2022-07-23T09:15:04;100662.38;;;15.94;100.00
13420;BME280;6781;58.440;15.470;2022-07-23T09:17:37;100668.34;;;16.39;100.00
13420;BME280;6781;58.440;15.470;2022-07-23T09:20:10;100672.47;;;16.41;100.00
13420;BME280;6781;58.440;15.470;2022-07-23T09:22:38;100624.75;;;16.21;100.00
13420;BME280;6781;58.440;15.470;2022-07-23T09:25:10;100665.56;;;16.66;100.00
13420;BME280;6781;58.440;15.470;2022-07-23T09:27:51;100608.66;;;16.08;100.00
13420;BME280;6781;58.440;15.470;2022-07-23T09:30:19;100607.44;;;15.94;100.00
13420;BME280;6781;58.440;15.470;2022-07-23T09:33:05;100645.81;;;15.86;100.00
13420;BME280;6781;58.440;15.470;2022-07-23T09:35:53;100647.75;;;16.10;100.00
13420;BME280;6781;58.440;15.470;2022-07-23T09:38:23;100649.41;;;16.45;100.00
13420;BME280;6781;58.440;15.470;2022-07-23T09:41:05;100640.53;;;16.38;100.00
13420;BME280;6781;58.440;15.470;2022-07-23T09:43:32;100649.59;;;16.94;100.00
13420;BME280;6781;58.440;15.470;2022-07-23T09:46:17;100629.47;;;16.52;100.00
13420;BME280;6781;58.440;15.470;2022-07-23T09:48:44;100638.47;;;17.00;100.00
13420;BME280;6781;58.440;15.470;2022-07-23T09:51:11;100532.59;;;16.02;100.00
13420;BME280;6781;58.440;15.470;2022-07-23T09:53:39;100551.41;;;16.05;100.00
13420;BME280;6781;58.440;15.470;2022-07-23T09:56:07;100636.47;;;16.09;100.00
13420;BME280;6781;58.440;15.470;2022-07-23T09:58:35;100652.19;;;15.83;100.00
13420;BME280;6781;58.440;15.470;2022-07-23T10:01:12;100579.19;;;15.46;100.00
13420;BME280;6781;58.440;15.470;2022-07-23T10:03:40;100571.88;;;15.50;100.00
13420;BME280;6781;58.440;15.470;2022-07-23T10:06:08;100569.50;;;15.39;100.00
13420;BME280;6781;58.440;15.470;2022-07-23T10:08:36;100572.69;;;15.76;100.00
13420;BME280;6781;58.440;15.470;2022-07-23T10:11:09;100533.06;;;15.37;100.00
13420;BME280;6781;58.440;15.470;2022-07-23T10:13:38;100650.94;;;16.21;100.00
13420;BME280;6781;58.440;15.470;2022-07-23T10:16:20;100537.50;;;15.71;100.00
13420;BME280;6781;58.440;15.470;2022-07-23T10:18:48;100621.53;;;16.36;100.00
13420;BME280;6781;58.440;15.470;2022-07-23T10:21:19;100577.03;;;16.36;100.00
13420;BME280;6781;58.440;15.470;2022-07-23T10:24:01;100635.81;;;16.83;100.00
13420;BME280;6781;58.440;15.470;2022-07-23T10:26:36;100553.84;;;16.49;100.00
13420;BME280;6781;58.440;15.470;2022-07-23T10:29:13;100575.16;;;16.62;100.00
13420;BME280;6781;58.440;15.470;2022-07-23T10:31:52;100639.13;;;17.18;100.00
13420;BME280;6781;58.440;15.470;2022-07-23T10:34:28;100630.44;;;17.09;100.00
13420;BME280;6781;58.440;15.470;2022-07-23T10:37:01;100606.19;;;16.91;100.00
13420;BME280;6781;58.440;15.470;2022-07-23T10:39:33;100615.69;;;17.00;100.00
13420;BME280;6781;58.440;15.470;2022-07-23T10:42:12;100445.06;;;15.88;100.00
13420;BME280;6781;58.440;15.470;2022-07-23T10:44:41;100622.75;;;17.32;100.00
13420;BME280;6781;58.440;15.470;2022-07-23T10:47:09;100537.88;;;16.68;100.00
13420;BME280;6781;58.440;15.470;2022-07-23T10:49:53;100616.50;;;17.01;100.00
13420;BME280;6781;58.440;15.470;2022-07-23T10:52:24;100524.66;;;16.27;100.00
13420;BME280;6781;58.440;15.470;2022-07-23T10:54:53;100593.53;;;16.70;100.00
13420;BME280;6781;58.440;15.470;2022-07-23T10:57:22;100641.06;;;17.00;100.00
13420;BME280;6781;58.440;15.470;2022-07-23T11:00:09;100637.50;;;17.09;100.00
13420;BME280;6781;58.440;15.470;2022-07-23T11:02:39;100631.53;;;16.82;100.00
13420;BME280;6781;58.440;15.470;2022-07-23T11:05:08;100530.03;;;15.76;100.00
13420;BME280;6781;58.440;15.470;2022-07-23T11:07:35;100629.78;;;16.49;100.00
13420;BME280;6781;58.440;15.470;2022-07-23T11:10:03;100538.53;;;15.78;100.00
13420;BME280;6781;58.440;15.470;2022-07-23T11:12:37;100649.16;;;16.64;100.00
13420;BME280;6781;58.440;15.470;2022-07-23T11:15:07;100645.66;;;16.47;100.00
13420;BME280;6781;58.440;15.470;2022-07-23T11:17:36;100597.81;;;16.37;100.00
13420;BME280;6781;58.440;15.470;2022-07-23T11:20:20;100635.03;;;16.57;100.00
13420;BME280;6781;58.440;15.470;2022-07-23T11:22:50;100585.47;;;16.13;100.00
13420;BME280;6781;58.440;15.470;2022-07-23T11:25:34;100654.91;;;16.34;100.00
13420;BME280;6781;58.440;15.470;2022-07-23T11:28:11;100635.72;;;16.25;100.00
13420;BME280;6781;58.440;15.470;2022-07-23T11:30:41;100575.16;;;15.78;100.00
13420;BME280;6781;58.440;15.470;2022-07-23T11:33:19;100632.16;;;16.00;100.00
13420;BME280;6781;58.440;15.470;2022-07-23T11:35:49;100639.03;;;16.01;100.00
13420;BME280;6781;58.440;15.470;2022-07-23T11:38:18;100694.66;;;16.03;100.00
13420;BME280;6781;58.440;15.470;2022-07-23T11:40:47;100503.97;;;14.88;100.00
13420;BME280;6781;58.440;15.470;2022-07-23T11:43:16;100614.94;;;15.63;100.00
13420;BME280;6781;58.440;15.470;2022-07-23T11:45:45;100709.53;;;16.03;100.00
13420;BME280;6781;58.440;15.470;2022-07-23T11:48:17;100694.75;;;15.93;100.00
13420;BME280;6781;58.440;15.470;2022-07-23T11:50:44;100700.09;;;16.10;100.00
13420;BME280;6781;58.440;15.470;2022-07-23T11:53:12;100689.69;;;16.52;100.00
13420;BME280;6781;58.440;15.470;2022-07-23T11:55:40;100665.69;;;16.31;100.00
13420;BME280;6781;58.440;15.470;2022-07-23T11:58:07;100698.00;;;16.47;100.00
13420;BME280;6781;58.440;15.470;2022-07-23T12:00:35;100693.69;;;16.04;100.00
13420;BME280;6781;58.440;15.470;2022-07-23T12:03:04;100699.03;;;15.77;100.00
13420;BME280;6781;58.440;15.470;2022-07-23T12:05:32;100705.41;;;15.56;100.00
13420;BME280;6781;58.440;15.470;2022-07-23T12:08:01;100731.19;;;15.51;100.00
13420;BME280;6781;58.440;15.470;2022-07-23T12:10:34;100676.03;;;14.91;100.00
13420;BME280;6781;58.440;15.470;2022-07-23T12:13:03;100763.44;;;15.42;100.00
13420;BME280;6781;58.440;15.470;2022-07-23T12:15:36;100702.63;;;15.05;100.00
13420;BME280;6781;58.440;15.470;2022-07-23T12:18:05;100791.44;;;15.59;100.00
13420;BME280;6781;58.440;15.470;2022-07-23T12:20:34;100751.66;;;15.38;100.00
13420;BME280;6781;58.440;15.470;2022-07-23T12:23:04;100792.25;;;15.60;100.00
13420;BME280;6781;58.440;15.470;2022-07-23T12:25:33;100775.13;;;15.66;100.00
13420;BME280;6781;58.440;15.470;2022-07-23T12:28:03;100763.38;;;15.70;100.00
13420;BME280;6781;58.440;15.470;2022-07-23T12:30:34;100535.69;;;14.30;100.00
13420;BME280;6781;58.440;15.470;2022-07-23T12:33:03;100752.94;;;15.52;100.00
13420;BME280;6781;58.440;15.470;2022-07-23T12:35:33;100785.25;;;16.04;100.00
13420;BME280;6781;58.440;15.470;2022-07-23T12:38:02;100769.56;;;15.86;100.00
13420;BME280;6781;58.440;15.470;2022-07-23T12:40:30;100771.22;;;15.70;100.00
13420;BME280;6781;58.440;15.470;2022-07-23T12:42:58;100745.69;;;15.63;100.00
13420;BME280;6781;58.440;15.470;2022-07-23T12:45:27;100765.41;;;15.76;100.00
13420;BME280;6781;58.440;15.470;2022-07-23T12:48:04;100763.53;;;15.68;100.00
13420;BME280;6781;58.440;15.470;2022-07-23T12:50:43;100777.06;;;15.63;100.00